sensor_id;sensor_type;location;lat;lon;timestamp;pressure;altitude;pressure_sealevel;temperature;humidity
8573;BME280;4324;42.012;24.872;2023-03-20T00:00:28;99393.72;;;7.88;63.47
8573;BME280;4324;42.012;24.872;2023-03-20T00:02:56;99385.41;;;7.83;63.64
8573;BME280;4324;42.012;24.872;2023-03-20T00:05:25;99385.81;;;7.88;63.74
8573;BME280;4324;42.012;24.872;2023-03-20T00:07:54;99375.97;;;7.80;63.64
8573;BME280;4324;42.012;24.872;2023-03-20T00:10:25;99369.03;;;7.79;63.88
8573;BME280;4324;42.012;24.872;2023-03-20T00:12:53;99360.69;;;7.84;63.73
8573;BME280;4324;42.012;24.872;2023-03-20T00:15:25;99366.63;;;7.86;64.00
8573;BME280;4324;42.012;24.872;2023-03-20T00:17:52;99360.16;;;7.90;64.21
8573;BME280;4324;42.012;24.872;2023-03-20T00:20:20;99349.16;;;7.85;64.14
8573;BME280;4324;42.012;24.872;2023-03-20T00:22:49;99344.88;;;7.84;64.13
8573;BME280;4324;42.012;24.872;2023-03-20T00:25:18;99329.06;;;7.84;64.18
8573;BME280;4324;42.012;24.872;2023-03-20T00:27:45;99339.88;;;7.90;64.51
8573;BME280;4324;42.012;24.872;2023-03-20T00:30:21;99328.34;;;7.82;64.65
8573;BME280;4324;42.012;24.872;2023-03-20T00:32:49;99330.88;;;7.83;64.26
8573;BME280;4324;42.012;24.872;2023-03-20T00:35:19;99349.59;;;7.90;64.76
8573;BME280;4324;42.012;24.872;2023-03-20T00:37:46;99336.53;;;7.88;64.86
8573;BME280;4324;42.012;24.872;2023-03-20T00:40:15;99329.34;;;7.81;65.03
8573;BME280;4324;42.012;24.872;2023-03-20T00:42:43;99334.34;;;7.84;64.75
8573;BME280;4324;42.012;24.872;2023-03-20T00:45:13;99334.75;;;7.79;64.86
8573;BME280;4324;42.012;24.872;2023-03-20T00:47:40;99333.91;;;7.79;65.00
8573;BME280;4324;42.012;24.872;2023-03-20T00:50:15;99337.66;;;7.76;64.91
8573;BME280;4324;42.012;24.872;2023-03-20T00:52:43;99327.41;;;7.73;65.16
8573;BME280;4324;42.012;24.872;2023-03-20T00:55:10;99322.41;;;7.70;65.16
8573;BME280;4324;42.012;24.872;2023-03-20T00:57:42;99319.22;;;7.66;65.37
8573;BME280;4324;42.012;24.872;2023-03-20T01:00:23;99321.84;;;7.66;65.46
8573;BME280;4324;42.012;24.872;2023-03-20T01:02:52;99324.06;;;7.61;65.30
8573;BME280;4324;42.012;24.872;2023-03-20T01:05:20;99306.44;;;7.52;65.61
8573;BME280;4324;42.012;24.872;2023-03-20T01:07:47;99309.34;;;7.49;65.65
8573;BME280;4324;42.012;24.872;2023-03-20T01:10:15;99309.94;;;7.43;65.79
8573;BME280;4324;42.012;24.872;2023-03-20T01:12:45;99313.25;;;7.45;65.97
8573;BME280;4324;42.012;24.872;2023-03-20T01:15:21;99309.78;;;7.44;65.92
8573;BME280;4324;42.012;24.872;2023-03-20T01:17:49;99318.50;;;7.45;66.19
8573;BME280;4324;42.012;24.872;2023-03-20T01:20:19;99304.94;;;7.40;66.50
8573;BME280;4324;42.012;24.872;2023-03-20T01:22:47;99320.31;;;7.44;66.24
8573;BME280;4324;42.012;24.872;2023-03-20T01:25:14;99318.81;;;7.42;66.35
8573;BME280;4324;42.012;24.872;2023-03-20T01:27:45;99320.75;;;7.40;66.42
8573;BME280;4324;42.012;24.872;2023-03-20T01:30:21;99304.34;;;7.26;66.71
8573;BME280;4324;42.012;24.872;2023-03-20T01:32:49;99318.53;;;7.35;66.63
8573;BME280;4324;42.012;24.872;2023-03-20T01:35:18;99316.00;;;7.34;66.62
8573;BME280;4324;42.012;24.872;2023-03-20T01:37:46;99309.09;;;7.33;66.60
8573;BME280;4324;42.012;24.872;2023-03-20T01:40:30;99316.00;;;7.34;66.67
8573;BME280;4324;42.012;24.872;2023-03-20T01:42:59;99309.34;;;7.30;67.10
8573;BME280;4324;42.012;24.872;2023-03-20T01:45:31;99314.75;;;7.18;67.37
8573;BME280;4324;42.012;24.872;2023-03-20T01:48:01;99322.91;;;7.15;67.41
8573;BME280;4324;42.012;24.872;2023-03-20T01:50:30;99317.94;;;7.12;67.51
8573;BME280;4324;42.012;24.872;2023-03-20T01:53:04;99310.16;;;7.11;67.55
8573;BME280;4324;42.012;24.872;2023-03-20T01:55:32;99309.06;;;7.13;67.49
8573;BME280;4324;42.012;24.872;2023-03-20T01:58:03;99281.06;;;7.02;67.69
8573;BME280;4324;42.012;24.872;2023-03-20T02:00:33;99302.16;;;7.12;67.96
8573;BME280;4324;42.012;24.872;2023-03-20T02:03:01;99297.97;;;7.10;67.85
8573;BME280;4324;42.012;24.872;2023-03-20T02:05:28;99296.88;;;7.12;68.08
8573;BME280;4324;42.012;24.872;2023-03-20T02:08:04;99270.13;;;6.97;67.95
8573;BME280;4324;42.012;24.872;2023-03-20T02:10:35;99289.94;;;7.11;67.71
8573;BME280;4324;42.012;24.872;2023-03-20T02:13:04;99295.19;;;7.11;67.82
8573;BME280;4324;42.012;24.872;2023-03-20T02:15:31;99289.25;;;7.09;68.00
8573;BME280;4324;42.012;24.872;2023-03-20T02:17:58;99265.94;;;6.95;68.04
8573;BME280;4324;42.012;24.872;2023-03-20T02:20:33;99284.94;;;7.08;68.66
8573;BME280;4324;42.012;24.872;2023-03-20T02:26:17;99275.50;;;6.96;68.46
8573;BME280;4324;42.012;24.872;2023-03-20T02:29:30;99292.56;;;7.11;68.75
8573;BME280;4324;42.012;24.872;2023-03-20T02:32:29;99296.03;;;7.12;68.97
8573;BME280;4324;42.012;24.872;2023-03-20T02:38:29;99300.72;;;7.08;69.10
8573;BME280;4324;42.012;24.872;2023-03-20T02:41:01;99296.16;;;7.00;69.04
8573;BME280;4324;42.012;24.872;2023-03-20T02:43:37;99296.25;;;6.89;68.86
8573;BME280;4324;42.012;24.872;2023-03-20T02:46:12;99305.13;;;6.88;69.08
8573;BME280;4324;42.012;24.872;2023-03-20T02:48:46;99266.84;;;6.65;69.57
8573;BME280;4324;42.012;24.872;2023-03-20T02:51:21;99289.59;;;6.75;69.43
8573;BME280;4324;42.012;24.872;2023-03-20T02:53:59;99271.28;;;6.64;69.68
8573;BME280;4324;42.012;24.872;2023-03-20T02:56:37;99284.91;;;6.79;69.98
8573;BME280;4324;42.012;24.872;2023-03-20T02:59:18;99276.81;;;6.71;70.04
8573;BME280;4324;42.012;24.872;2023-03-20T03:01:52;99278.50;;;6.72;70.08
8573;BME280;4324;42.012;24.872;2023-03-20T03:04:22;99265.72;;;6.67;70.01
8573;BME280;4324;42.012;24.872;2023-03-20T03:06:51;99282.38;;;6.77;70.15
8573;BME280;4324;42.012;24.872;2023-03-20T03:09:24;99273.81;;;6.75;70.36
8573;BME280;4324;42.012;24.872;2023-03-20T03:11:57;99274.38;;;6.79;70.29
8573;BME280;4324;42.012;24.872;2023-03-20T03:14:31;99278.78;;;6.78;70.48
8573;BME280;4324;42.012;24.872;2023-03-20T03:17:01;99276.56;;;6.74;70.67
8573;BME280;4324;42.012;24.872;2023-03-20T03:19:31;99187.25;;;6.22;70.83
8573;BME280;4324;42.012;24.872;2023-03-20T03:21:59;99261.03;;;6.71;70.66
8573;BME280;4324;42.012;24.872;2023-03-20T03:24:29;99267.00;;;6.73;70.88
8573;BME280;4324;42.012;24.872;2023-03-20T03:26:58;99265.22;;;6.73;71.10
8573;BME280;4324;42.012;24.872;2023-03-20T03:29:30;99273.81;;;6.75;71.07
8573;BME280;4324;42.012;24.872;2023-03-20T03:31:59;99276.56;;;6.74;71.31
8573;BME280;4324;42.012;24.872;2023-03-20T03:34:27;99267.16;;;6.71;71.18
8573;BME280;4324;42.012;24.872;2023-03-20T03:37:01;99273.50;;;6.69;71.24
8573;BME280;4324;42.012;24.872;2023-03-20T03:39:36;99272.81;;;6.67;71.21
8573;BME280;4324;42.012;24.872;2023-03-20T03:42:09;99279.03;;;6.66;71.38
8573;BME280;4324;42.012;24.872;2023-03-20T03:44:45;99273.78;;;6.66;71.41
8573;BME280;4324;42.012;24.872;2023-03-20T03:47:18;99264.75;;;6.59;71.56
8573;BME280;4324;42.012;24.872;2023-03-20T03:49:50;99268.91;;;6.61;71.47
8573;BME280;4324;42.012;24.872;2023-03-20T03:52:21;99272.94;;;6.65;71.51
8573;BME280;4324;42.012;24.872;2023-03-20T03:54:53;99274.59;;;6.66;71.62
8573;BME280;4324;42.012;24.872;2023-03-20T03:57:28;99277.94;;;6.68;71.87
8573;BME280;4324;42.012;24.872;2023-03-20T03:59:57;99246.31;;;6.49;71.65
8573;BME280;4324;42.012;24.872;2023-03-20T04:02:27;99276.25;;;6.67;71.69
8573;BME280;4324;42.012;24.872;2023-03-20T04:04:55;99274.34;;;6.69;72.09
8573;BME280;4324;42.012;24.872;2023-03-20T04:07:24;99270.47;;;6.73;72.35
8573;BME280;4324;42.012;24.872;2023-03-20T04:09:53;99265.22;;;6.73;72.29
8573;BME280;4324;42.012;24.872;2023-03-20T04:12:35;99269.22;;;6.77;72.30
8573;BME280;4324;42.012;24.872;2023-03-20T04:15:03;99276.72;;;6.82;72.00
8573;BME280;4324;42.012;24.872;2023-03-20T04:17:30;99266.31;;;6.71;71.94
8573;BME280;4324;42.012;24.872;2023-03-20T04:19:57;99278.50;;;6.72;72.41
8573;BME280;4324;42.012;24.872;2023-03-20T04:22:24;99284.34;;;6.75;72.78
8573;BME280;4324;42.012;24.872;2023-03-20T04:24:53;99294.03;;;6.75;72.36
8573;BME280;4324;42.012;24.872;2023-03-20T04:27:19;99263.50;;;6.53;72.78
8573;BME280;4324;42.012;24.872;2023-03-20T04:29:46;99285.56;;;6.71;72.66
8573;BME280;4324;42.012;24.872;2023-03-20T04:32:14;99289.47;;;6.77;72.41
8573;BME280;4324;42.012;24.872;2023-03-20T04:34:40;99267.94;;;6.62;72.84
8573;BME280;4324;42.012;24.872;2023-03-20T04:37:08;99269.06;;;6.69;72.53
8573;BME280;4324;42.012;24.872;2023-03-20T04:39:35;99280.31;;;6.71;72.88
8573;BME280;4324;42.012;24.872;2023-03-20T04:42:04;99283.88;;;6.70;73.11
8573;BME280;4324;42.012;24.872;2023-03-20T04:44:32;99284.44;;;6.64;73.22
8573;BME280;4324;42.012;24.872;2023-03-20T04:46:58;99287.06;;;6.64;72.88
8573;BME280;4324;42.012;24.872;2023-03-20T04:49:26;99286.09;;;6.65;73.02
8573;BME280;4324;42.012;24.872;2023-03-20T04:51:53;99288.31;;;6.60;73.62
8573;BME280;4324;42.012;24.872;2023-03-20T04:54:20;99286.88;;;6.56;73.62
8573;BME280;4324;42.012;24.872;2023-03-20T04:56:47;99281.91;;;6.53;74.12
8573;BME280;4324;42.012;24.872;2023-03-20T04:59:16;99274.13;;;6.42;73.64
8573;BME280;4324;42.012;24.872;2023-03-20T05:01:43;99290.44;;;6.36;74.46
8573;BME280;4324;42.012;24.872;2023-03-20T05:04:10;99294.72;;;6.37;75.21
8573;BME280;4324;42.012;24.872;2023-03-20T05:06:37;99286.81;;;6.27;75.13
8573;BME280;4324;42.012;24.872;2023-03-20T05:09:04;99286.91;;;6.25;75.18
8573;BME280;4324;42.012;24.872;2023-03-20T05:11:31;99293.00;;;6.26;75.30
8573;BME280;4324;42.012;24.872;2023-03-20T05:13:58;99288.00;;;6.23;75.42
8573;BME280;4324;42.012;24.872;2023-03-20T05:16:26;99290.00;;;6.30;75.46
8573;BME280;4324;42.012;24.872;2023-03-20T05:18:53;99266.03;;;6.24;75.41
8573;BME280;4324;42.012;24.872;2023-03-20T05:21:20;99270.03;;;6.28;75.39
8573;BME280;4324;42.012;24.872;2023-03-20T05:23:47;99301.47;;;6.60;75.45
8573;BME280;4324;42.012;24.872;2023-03-20T05:26:14;99288.72;;;6.65;75.65
8573;BME280;4324;42.012;24.872;2023-03-20T05:28:41;99302.63;;;6.77;75.67
8573;BME280;4324;42.012;24.872;2023-03-20T05:31:08;99290.03;;;6.81;75.67
8573;BME280;4324;42.012;24.872;2023-03-20T05:33:36;99266.59;;;6.77;75.69
8573;BME280;4324;42.012;24.872;2023-03-20T05:36:04;99291.75;;;7.01;75.41
8573;BME280;4324;42.012;24.872;2023-03-20T05:38:31;99297.16;;;7.09;75.24
8573;BME280;4324;42.012;24.872;2023-03-20T05:40:59;99289.81;;;7.22;75.45
8573;BME280;4324;42.012;24.872;2023-03-20T05:43:26;99286.22;;;7.33;75.42
8573;BME280;4324;42.012;24.872;2023-03-20T05:45:53;99273.03;;;7.33;75.69
8573;BME280;4324;42.012;24.872;2023-03-20T05:48:20;99286.63;;;7.48;75.45
8573;BME280;4324;42.012;24.872;2023-03-20T05:50:49;99278.16;;;7.54;75.42
8573;BME280;4324;42.012;24.872;2023-03-20T05:53:16;99285.66;;;7.68;75.10
8573;BME280;4324;42.012;24.872;2023-03-20T05:55:43;99277.72;;;7.78;75.15
8573;BME280;4324;42.012;24.872;2023-03-20T05:58:10;99284.06;;;7.95;75.06
8573;BME280;4324;42.012;24.872;2023-03-20T06:00:37;99290.16;;;8.05;74.95
8573;BME280;4324;42.012;24.872;2023-03-20T06:03:04;99289.00;;;8.17;74.95
8573;BME280;4324;42.012;24.872;2023-03-20T06:05:32;99286.34;;;8.27;74.90
8573;BME280;4324;42.012;24.872;2023-03-20T06:08:01;99277.72;;;8.35;74.64
8573;BME280;4324;42.012;24.872;2023-03-20T06:10:28;99282.94;;;8.54;74.65
8573;BME280;4324;42.012;24.872;2023-03-20T06:12:56;99283.84;;;8.63;74.66
8573;BME280;4324;42.012;24.872;2023-03-20T06:15:25;99285.09;;;8.68;74.40
8573;BME280;4324;42.012;24.872;2023-03-20T06:17:53;99277.84;;;8.70;74.24
8573;BME280;4324;42.012;24.872;2023-03-20T06:20:20;99283.53;;;8.76;74.08
8573;BME280;4324;42.012;24.872;2023-03-20T06:22:47;99284.88;;;8.80;73.91
8573;BME280;4324;42.012;24.872;2023-03-20T06:25:15;99287.78;;;8.86;74.35
8573;BME280;4324;42.012;24.872;2023-03-20T06:27:44;99293.44;;;8.91;74.30
8573;BME280;4324;42.012;24.872;2023-03-20T06:30:12;99294.78;;;8.95;74.31
8573;BME280;4324;42.012;24.872;2023-03-20T06:32:39;99296.03;;;9.01;73.90
8573;BME280;4324;42.012;24.872;2023-03-20T06:35:07;99285.47;;;9.01;73.79
8573;BME280;4324;42.012;24.872;2023-03-20T06:37:34;99288.94;;;9.02;73.75
8573;BME280;4324;42.012;24.872;2023-03-20T06:40:02;99293.06;;;9.04;73.75
8573;BME280;4324;42.012;24.872;2023-03-20T06:42:31;99259.78;;;8.93;73.71
8573;BME280;4324;42.012;24.872;2023-03-20T06:44:57;99223.72;;;8.84;73.38
8573;BME280;4324;42.012;24.872;2023-03-20T06:47:24;99286.47;;;9.36;73.12
8573;BME280;4324;42.012;24.872;2023-03-20T06:49:51;99282.81;;;9.37;72.94
8573;BME280;4324;42.012;24.872;2023-03-20T06:52:19;99291.34;;;9.49;72.70
8573;BME280;4324;42.012;24.872;2023-03-20T06:54:47;99279.81;;;9.50;72.52
8573;BME280;4324;42.012;24.872;2023-03-20T06:57:15;99277.38;;;9.56;72.28
8573;BME280;4324;42.012;24.872;2023-03-20T06:59:44;99288.63;;;9.76;72.29
8573;BME280;4324;42.012;24.872;2023-03-20T07:02:11;99249.03;;;9.66;72.22
8573;BME280;4324;42.012;24.872;2023-03-20T07:04:38;99269.72;;;9.97;72.21
8573;BME280;4324;42.012;24.872;2023-03-20T07:07:05;99290.53;;;10.18;71.56
8573;BME280;4324;42.012;24.872;2023-03-20T07:09:32;99283.19;;;10.30;71.41
8573;BME280;4324;42.012;24.872;2023-03-20T07:11:59;99278.78;;;10.38;71.34
8573;BME280;4324;42.012;24.872;2023-03-20T07:14:26;99271.19;;;10.44;71.01
8573;BME280;4324;42.012;24.872;2023-03-20T07:16:58;99265.09;;;10.51;70.91
8573;BME280;4324;42.012;24.872;2023-03-20T07:19:25;99270.13;;;10.62;70.75
8573;BME280;4324;42.012;24.872;2023-03-20T07:21:56;99274.47;;;10.72;70.65
8573;BME280;4324;42.012;24.872;2023-03-20T07:24:27;99272.16;;;10.77;70.31
8573;BME280;4324;42.012;24.872;2023-03-20T07:26:54;99265.72;;;10.79;70.41
8573;BME280;4324;42.012;24.872;2023-03-20T07:29:21;99271.19;;;10.86;70.19
8573;BME280;4324;42.012;24.872;2023-03-20T07:31:48;99255.47;;;10.93;70.01
8573;BME280;4324;42.012;24.872;2023-03-20T07:34:16;99266.94;;;11.09;70.50
8573;BME280;4324;42.012;24.872;2023-03-20T07:36:43;99258.88;;;11.27;70.38
8573;BME280;4324;42.012;24.872;2023-03-20T07:39:12;99253.25;;;11.38;70.25
8573;BME280;4324;42.012;24.872;2023-03-20T07:41:39;99251.72;;;11.52;70.41
8573;BME280;4324;42.012;24.872;2023-03-20T07:44:06;99262.66;;;11.74;70.84
8573;BME280;4324;42.012;24.872;2023-03-20T07:46:35;99244.94;;;11.74;70.79
8573;BME280;4324;42.012;24.872;2023-03-20T07:49:02;99257.88;;;11.85;70.28
8573;BME280;4324;42.012;24.872;2023-03-20T07:51:31;99231.16;;;11.79;70.19
8573;BME280;4324;42.012;24.872;2023-03-20T07:53:58;99259.34;;;12.04;69.93
8573;BME280;4324;42.012;24.872;2023-03-20T07:56:25;99255.03;;;12.03;70.03
8573;BME280;4324;42.012;24.872;2023-03-20T07:58:52;99240.75;;;12.04;69.71
8573;BME280;4324;42.012;24.872;2023-03-20T08:01:19;99254.00;;;12.21;70.18
8573;BME280;4324;42.012;24.872;2023-03-20T08:03:46;99252.81;;;12.31;70.05
8573;BME280;4324;42.012;24.872;2023-03-20T08:06:13;99236.03;;;12.39;69.55
8573;BME280;4324;42.012;24.872;2023-03-20T08:08:41;99246.03;;;12.60;69.43
8573;BME280;4324;42.012;24.872;2023-03-20T08:11:09;99252.81;;;12.71;68.62
8573;BME280;4324;42.012;24.872;2023-03-20T08:13:36;99230.59;;;12.64;68.45
8573;BME280;4324;42.012;24.872;2023-03-20T08:16:04;99250.81;;;12.73;67.57
8573;BME280;4324;42.012;24.872;2023-03-20T08:18:31;99240.19;;;12.73;66.95
8573;BME280;4324;42.012;24.872;2023-03-20T08:20:58;99240.00;;;12.74;66.66
8573;BME280;4324;42.012;24.872;2023-03-20T08:23:25;99241.16;;;12.80;66.85
8573;BME280;4324;42.012;24.872;2023-03-20T08:25:53;99236.31;;;12.83;66.68
8573;BME280;4324;42.012;24.872;2023-03-20T08:28:21;99242.06;;;12.95;66.39
8573;BME280;4324;42.012;24.872;2023-03-20T08:30:48;99244.84;;;13.02;66.21
8573;BME280;4324;42.012;24.872;2023-03-20T08:33:16;99223.94;;;12.99;66.02
8573;BME280;4324;42.012;24.872;2023-03-20T08:35:43;99224.69;;;13.07;66.10
8573;BME280;4324;42.012;24.872;2023-03-20T08:38:11;99236.91;;;13.25;66.18
8573;BME280;4324;42.012;24.872;2023-03-20T08:40:39;99245.47;;;13.35;66.02
8573;BME280;4324;42.012;24.872;2023-03-20T08:43:08;99239.31;;;13.35;65.50
8573;BME280;4324;42.012;24.872;2023-03-20T08:45:35;99245.41;;;13.43;65.64
8573;BME280;4324;42.012;24.872;2023-03-20T08:48:01;99225.84;;;13.36;65.55
8573;BME280;4324;42.012;24.872;2023-03-20T08:50:29;99237.28;;;13.60;65.21
8573;BME280;4324;42.012;24.872;2023-03-20T08:52:56;99226.66;;;13.60;64.89
8573;BME280;4324;42.012;24.872;2023-03-20T08:55:23;99220.84;;;13.56;64.47
8573;BME280;4324;42.012;24.872;2023-03-20T08:57:51;99230.72;;;13.70;64.41
8573;BME280;4324;42.012;24.872;2023-03-20T09:00:20;99235.59;;;13.82;64.23
8573;BME280;4324;42.012;24.872;2023-03-20T09:02:48;99209.78;;;13.82;63.94
8573;BME280;4324;42.012;24.872;2023-03-20T09:05:16;99237.28;;;14.12;63.25
8573;BME280;4324;42.012;24.872;2023-03-20T09:07:43;99226.72;;;14.19;62.55
8573;BME280;4324;42.012;24.872;2023-03-20T09:10:11;99206.16;;;14.13;62.70
8573;BME280;4324;42.012;24.872;2023-03-20T09:12:38;99219.66;;;14.26;62.89
8573;BME280;4324;42.012;24.872;2023-03-20T09:15:06;99209.44;;;14.29;62.38
8573;BME280;4324;42.012;24.872;2023-03-20T09:17:35;99211.75;;;14.33;62.09
8573;BME280;4324;42.012;24.872;2023-03-20T09:20:02;99195.41;;;14.36;61.78
8573;BME280;4324;42.012;24.872;2023-03-20T09:22:29;99214.13;;;14.57;61.73
8573;BME280;4324;42.012;24.872;2023-03-20T09:24:56;99206.22;;;14.64;61.39
8573;BME280;4324;42.012;24.872;2023-03-20T09:27:23;99201.16;;;14.69;61.26
8573;BME280;4324;42.012;24.872;2023-03-20T09:29:50;99202.97;;;14.83;60.75
8573;BME280;4324;42.012;24.872;2023-03-20T09:32:17;99206.97;;;14.94;60.80
8573;BME280;4324;42.012;24.872;2023-03-20T09:34:45;99204.19;;;15.02;60.65
8573;BME280;4324;42.012;24.872;2023-03-20T09:37:12;99196.38;;;15.00;60.45
8573;BME280;4324;42.012;24.872;2023-03-20T09:39:39;99191.47;;;15.04;60.55
8573;BME280;4324;42.012;24.872;2023-03-20T09:42:17;99186.41;;;15.09;60.43
8573;BME280;4324;42.012;24.872;2023-03-20T09:44:55;99174.53;;;15.12;60.44
8573;BME280;4324;42.012;24.872;2023-03-20T09:47:30;99188.63;;;15.27;60.26
8573;BME280;4324;42.012;24.872;2023-03-20T09:50:11;99149.50;;;15.13;59.84
8573;BME280;4324;42.012;24.872;2023-03-20T09:52:53;99164.50;;;15.35;59.51
8573;BME280;4324;42.012;24.872;2023-03-20T09:55:29;99173.16;;;15.44;59.43
8573;BME280;4324;42.012;24.872;2023-03-20T09:58:01;99173.41;;;15.49;59.25
8573;BME280;4324;42.012;24.872;2023-03-20T10:00:31;99160.50;;;15.53;59.31
8573;BME280;4324;42.012;24.872;2023-03-20T10:03:01;99161.38;;;15.60;59.09
8573;BME280;4324;42.012;24.872;2023-03-20T10:05:34;99147.00;;;15.61;58.90
8573;BME280;4324;42.012;24.872;2023-03-20T10:08:04;99162.81;;;15.84;58.76
8573;BME280;4324;42.012;24.872;2023-03-20T10:10:39;99158.91;;;15.86;58.59
8573;BME280;4324;42.012;24.872;2023-03-20T10:13:32;99146.41;;;15.93;58.36
8573;BME280;4324;42.012;24.872;2023-03-20T10:16:08;99133.31;;;15.99;58.20
8573;BME280;4324;42.012;24.872;2023-03-20T10:18:44;99092.53;;;15.77;57.87
8573;BME280;4324;42.012;24.872;2023-03-20T10:21:15;99132.53;;;16.11;57.58
8573;BME280;4324;42.012;24.872;2023-03-20T10:23:48;99139.97;;;16.16;57.88
8573;BME280;4324;42.012;24.872;2023-03-20T10:26:21;99136.28;;;16.24;57.43
8573;BME280;4324;42.012;24.872;2023-03-20T10:28:53;99117.84;;;16.29;57.45
8573;BME280;4324;42.012;24.872;2023-03-20T10:31:31;99123.63;;;16.45;57.45
8573;BME280;4324;42.012;24.872;2023-03-20T10:34:08;99126.75;;;16.56;56.89
8573;BME280;4324;42.012;24.872;2023-03-20T10:36:52;99126.16;;;16.67;56.98
8573;BME280;4324;42.012;24.872;2023-03-20T10:39:31;99114.91;;;16.78;56.82
8573;BME280;4324;42.012;24.872;2023-03-20T10:42:09;99092.06;;;16.82;56.41
8573;BME280;4324;42.012;24.872;2023-03-20T10:44:42;99082.22;;;16.89;56.22
8573;BME280;4324;42.012;24.872;2023-03-20T10:47:14;99101.16;;;17.21;56.34
8573;BME280;4324;42.012;24.872;2023-03-20T10:49:45;99098.25;;;17.29;56.11
8573;BME280;4324;42.012;24.872;2023-03-20T10:52:17;99074.78;;;17.31;55.86
8573;BME280;4324;42.012;24.872;2023-03-20T10:54:47;99076.00;;;17.42;55.09
8573;BME280;4324;42.012;24.872;2023-03-20T10:57:20;99074.53;;;17.53;55.06
8573;BME280;4324;42.012;24.872;2023-03-20T10:59:49;99070.22;;;17.52;54.95
8573;BME280;4324;42.012;24.872;2023-03-20T11:02:18;99070.41;;;17.57;54.88
8573;BME280;4324;42.012;24.872;2023-03-20T11:04:49;99036.72;;;17.36;54.52
8573;BME280;4324;42.012;24.872;2023-03-20T11:07:23;99047.59;;;17.54;54.62
8573;BME280;4324;42.012;24.872;2023-03-20T11:10:10;99047.75;;;17.66;54.74
8573;BME280;4324;42.012;24.872;2023-03-20T11:12:40;99037.63;;;17.68;54.58
8573;BME280;4324;42.012;24.872;2023-03-20T11:15:23;99025.91;;;17.69;54.39
8573;BME280;4324;42.012;24.872;2023-03-20T11:17:53;99031.63;;;17.86;54.24
8573;BME280;4324;42.012;24.872;2023-03-20T11:20:20;99018.88;;;17.88;54.06
8573;BME280;4324;42.012;24.872;2023-03-20T11:22:49;99025.16;;;18.07;53.95
8573;BME280;4324;42.012;24.872;2023-03-20T11:25:24;98991.78;;;18.03;53.89
8573;BME280;4324;42.012;24.872;2023-03-20T11:27:54;99019.72;;;18.20;53.41
8573;BME280;4324;42.012;24.872;2023-03-20T11:30:21;98998.28;;;18.20;53.35
8573;BME280;4324;42.012;24.872;2023-03-20T11:32:49;99010.16;;;18.31;53.37
8573;BME280;4324;42.012;24.872;2023-03-20T11:35:27;98998.22;;;18.33;53.09
8573;BME280;4324;42.012;24.872;2023-03-20T11:38:09;98988.47;;;18.39;52.93
8573;BME280;4324;42.012;24.872;2023-03-20T11:40:38;98983.50;;;18.43;52.56
8573;BME280;4324;42.012;24.872;2023-03-20T11:43:10;98985.94;;;18.51;52.41
8573;BME280;4324;42.012;24.872;2023-03-20T11:45:38;98989.00;;;18.54;52.14
8573;BME280;4324;42.012;24.872;2023-03-20T11:48:14;98985.66;;;18.59;52.18
8573;BME280;4324;42.012;24.872;2023-03-20T11:50:46;98970.00;;;18.56;52.16
8573;BME280;4324;42.012;24.872;2023-03-20T11:53:25;98976.56;;;18.60;51.88
8573;BME280;4324;42.012;24.872;2023-03-20T11:56:08;98971.59;;;18.63;51.69
8573;BME280;4324;42.012;24.872;2023-03-20T11:58:38;98964.59;;;18.62;51.46
8573;BME280;4324;42.012;24.872;2023-03-20T12:01:12;98875.28;;;18.12;51.45
8573;BME280;4324;42.012;24.872;2023-03-20T12:03:42;98937.97;;;18.61;51.03
8573;BME280;4324;42.012;24.872;2023-03-20T12:06:14;98960.94;;;18.82;50.98
8573;BME280;4324;42.012;24.872;2023-03-20T12:08:47;98945.84;;;18.88;50.94
8573;BME280;4324;42.012;24.872;2023-03-20T12:11:23;98946.94;;;18.98;51.11
8573;BME280;4324;42.012;24.872;2023-03-20T12:13:58;98934.94;;;19.01;50.54
8573;BME280;4324;42.012;24.872;2023-03-20T12:16:27;98924.16;;;19.07;50.78
8573;BME280;4324;42.012;24.872;2023-03-20T12:18:58;98925.09;;;19.13;50.55
8573;BME280;4324;42.012;24.872;2023-03-20T12:21:31;98946.69;;;19.25;50.29
8573;BME280;4324;42.012;24.872;2023-03-20T12:24:04;98929.16;;;19.22;50.43
8573;BME280;4324;42.012;24.872;2023-03-20T12:26:38;98945.69;;;19.38;49.89
8573;BME280;4324;42.012;24.872;2023-03-20T12:29:14;98920.34;;;19.33;50.00
8573;BME280;4324;42.012;24.872;2023-03-20T12:31:48;98939.72;;;19.54;49.79
8573;BME280;4324;42.012;24.872;2023-03-20T12:34:23;98918.34;;;19.47;49.75
8573;BME280;4324;42.012;24.872;2023-03-20T12:36:51;98934.66;;;19.64;49.18
8573;BME280;4324;42.012;24.872;2023-03-20T12:39:22;98907.47;;;19.54;49.22
8573;BME280;4324;42.012;24.872;2023-03-20T12:42:00;98924.34;;;19.79;48.89
8573;BME280;4324;42.012;24.872;2023-03-20T12:44:40;98909.53;;;19.89;48.88
8573;BME280;4324;42.012;24.872;2023-03-20T12:47:24;98902.91;;;19.91;48.84
8573;BME280;4324;42.012;24.872;2023-03-20T12:49:58;98903.22;;;19.95;48.35
8573;BME280;4324;42.012;24.872;2023-03-20T12:52:36;98907.25;;;20.04;47.92
8573;BME280;4324;42.012;24.872;2023-03-20T12:55:24;98898.59;;;20.02;47.19
8573;BME280;4324;42.012;24.872;2023-03-20T12:58:02;98910.38;;;20.01;47.49
8573;BME280;4324;42.012;24.872;2023-03-20T13:00:33;98893.41;;;19.89;47.88
8573;BME280;4324;42.012;24.872;2023-03-20T13:06:11;98887.44;;;19.87;47.57
8573;BME280;4324;42.012;24.872;2023-03-20T13:09:00;98899.53;;;19.96;47.33
8573;BME280;4324;42.012;24.872;2023-03-20T13:11:41;98895.91;;;20.02;47.63
8573;BME280;4324;42.012;24.872;2023-03-20T13:14:13;98892.75;;;20.05;47.23
8573;BME280;4324;42.012;24.872;2023-03-20T13:16:48;98881.53;;;20.08;47.06
8573;BME280;4324;42.012;24.872;2023-03-20T13:19:24;98899.56;;;20.19;46.75
8573;BME280;4324;42.012;24.872;2023-03-20T13:21:57;98871.97;;;20.12;46.59
8573;BME280;4324;42.012;24.872;2023-03-20T13:24:37;98886.47;;;20.11;46.69
8573;BME280;4324;42.012;24.872;2023-03-20T13:27:19;98812.75;;;19.65;46.46
8573;BME280;4324;42.012;24.872;2023-03-20T13:29:55;98888.47;;;20.16;46.21
8573;BME280;4324;42.012;24.872;2023-03-20T13:32:33;98868.09;;;20.08;46.11
8573;BME280;4324;42.012;24.872;2023-03-20T13:35:18;98869.44;;;20.17;46.10
8573;BME280;4324;42.012;24.872;2023-03-20T13:37:49;98869.09;;;20.25;46.05
8573;BME280;4324;42.012;24.872;2023-03-20T13:40:20;98854.47;;;20.21;45.64
8573;BME280;4324;42.012;24.872;2023-03-20T13:42:53;98813.97;;;19.93;45.17
8573;BME280;4324;42.012;24.872;2023-03-20T13:45:25;98870.25;;;20.29;45.03